Time;durP1;ratioP1;P1;durP2;ratioP2;P2;SDS_P1;SDS_P2;PMS_P1;PMS_P2;Temp;Humidity;BMP_temperature;BMP_pressure;BME280_temperature;BME280_humidity;BME280_pressure;Samples;Min_cycle;Max_cycle;Signal;HPM_P1;HPM_P2
2022/12/07 00:00:19;;;;;;;13.98;8.57;;;;;;;0.28;100.00;92892.22;2123753;27;20145;-74
2022/12/07 00:01:28;;;;;;;14.45;8.75;;;;;;;0.22;100.00;92891.75;2123554;27;20353;-74
2022/12/07 00:02:30;;;;;;;15.10;7.82;;;;;;;0.15;100.00;92887.19;2123755;27;20034;-75
2022/12/07 00:03:31;;;;;;;13.75;8.13;;;;;;;0.17;100.00;92887.56;2131078;27;20031;-75
2022/12/07 00:04:32;;;;;;;15.23;8.25;;;;;;;0.15;100.00;92895.06;2131458;27;20027;-74
2022/12/07 00:05:33;;;;;;;12.60;7.82;;;;;;;0.24;100.00;92897.44;2131865;27;20023;-74
2022/12/07 00:06:38;;;;;;;11.23;7.45;;;;;;;0.27;100.00;92896.72;2131584;27;20038;-74
2022/12/07 00:07:39;;;;;;;10.35;7.03;;;;;;;0.25;100.00;92898.94;2131834;27;20034;-74
2022/12/07 00:08:40;;;;;;;11.07;7.35;;;;;;;0.24;100.00;92894.81;2129324;27;20586;-74
2022/12/07 00:09:41;;;;;;;9.80;7.00;;;;;;;0.13;100.00;92893.88;2131224;27;20038;-73
2022/12/07 00:10:42;;;;;;;9.93;7.38;;;;;;;0.21;100.00;92893.63;2131369;27;20054;-75
2022/12/07 00:11:44;;;;;;;10.23;6.60;;;;;;;0.13;100.00;92888.63;2130736;27;20403;-74
2022/12/07 00:12:45;;;;;;;10.73;7.22;;;;;;;0.14;100.00;92885.66;2131300;27;20414;-75
2022/12/07 00:13:47;;;;;;;9.55;6.38;;;;;;;0.14;100.00;92888.28;2131118;27;20148;-76
2022/12/07 00:14:48;;;;;;;10.07;7.07;;;;;;;0.20;100.00;92886.13;2130829;27;20015;-74
2022/12/07 00:15:49;;;;;;;12.10;6.65;;;;;;;0.57;100.00;92875.69;2122588;27;20460;-73
2022/12/07 00:16:51;;;;;;;10.32;7.05;;;;;;;0.46;100.00;92880.81;2112896;28;20031;-75
2022/12/07 00:17:52;;;;;;;11.68;7.00;;;;;;;0.54;100.00;92879.03;2114268;27;20061;-75
2022/12/07 00:18:53;;;;;;;12.25;7.65;;;;;;;0.38;100.00;92878.44;2128662;27;20027;-73
2022/12/07 00:19:54;;;;;;;13.13;7.40;;;;;;;0.31;100.00;92879.13;2123214;27;20388;-74
2022/12/07 00:21:05;;;;;;;11.55;7.47;;;;;;;0.28;100.00;92877.22;2123280;27;20066;-74
2022/12/07 00:22:05;;;;;;;;;;;;;;;0.37;100.00;92882.19;2123145;27;20023;-74
2022/12/07 00:23:06;;;;;;;8.73;6.28;;;;;;;0.32;100.00;92887.78;2122439;27;19903;-74
2022/12/07 00:24:08;;;;;;;8.98;6.15;;;;;;;0.15;100.00;92878.53;2124477;27;20022;-74
2022/12/07 00:25:09;;;;;;;9.15;6.70;;;;;;;0.14;100.00;92875.16;2123785;27;20023;-75
2022/12/07 00:26:11;;;;;;;9.85;6.97;;;;;;;0.09;100.00;92883.34;2131691;27;20026;-75
2022/12/07 00:27:12;;;;;;;10.48;7.00;;;;;;;0.07;100.00;92877.69;2130836;27;20023;-74
2022/12/07 00:28:13;;;;;;;8.88;6.03;;;;;;;0.05;100.00;92873.91;2122786;27;20024;-74
2022/12/07 00:29:21;;;;;;;9.00;6.80;;;;;;;0.07;100.00;92877.69;2122670;27;20027;-77
2022/12/07 00:30:23;;;;;;;8.55;6.38;;;;;;;0.10;100.00;92876.22;2125219;27;20025;-74
2022/12/07 00:31:27;;;;;;;8.30;6.30;;;;;;;0.10;100.00;92884.09;2131144;27;20023;-75
2022/12/07 00:32:28;;;;;;;9.48;6.72;;;;;;;0.06;100.00;92885.94;2132151;27;20030;-74
2022/12/07 00:33:29;;;;;;;8.57;6.22;;;;;;;0.01;100.00;92875.72;2132409;27;20031;-75
2022/12/07 00:34:30;;;;;;;8.27;6.55;;;;;;;0.04;100.00;92867.88;2129903;27;20034;-76
2022/12/07 00:35:32;;;;;;;9.05;6.93;;;;;;;0.04;100.00;92867.88;2114185;28;20016;-76
2022/12/07 00:36:33;;;;;;;9.18;6.30;;;;;;;0.05;100.00;92866.03;2114823;27;20029;-76
2022/12/07 00:37:34;;;;;;;9.23;6.55;;;;;;;0.03;100.00;92871.63;2131177;27;20563;-75
2022/12/07 00:38:37;;;;;;;9.63;6.65;;;;;;;0.10;100.00;92868.34;2127430;27;20156;-76
2022/12/07 00:39:38;;;;;;;7.97;6.43;;;;;;;0.07;100.00;92869.03;2125351;27;20048;-75
2022/12/07 00:40:39;;;;;;;8.15;6.00;;;;;;;0.03;100.00;92868.22;2122190;27;20099;-74
2022/12/07 00:41:40;;;;;;;7.13;5.90;;;;;;;0.27;100.00;92862.56;2131005;27;20042;-73
2022/12/07 00:42:41;;;;;;;8.20;5.82;;;;;;;0.14;100.00;92869.16;2131395;27;20069;-73
2022/12/07 00:43:43;;;;;;;9.05;6.38;;;;;;;0.18;100.00;92869.94;2131673;27;20613;-73
2022/12/07 00:44:44;;;;;;;7.25;6.13;;;;;;;0.14;100.00;92861.25;2127195;27;20058;-73
2022/12/07 00:45:45;;;;;;;8.88;6.72;;;;;;;0.12;100.00;92866.09;2127911;27;20034;-73
2022/12/07 00:46:46;;;;;;;10.15;7.10;;;;;;;0.06;100.00;92859.66;2130744;27;20388;-73
2022/12/07 00:47:47;;;;;;;7.97;6.68;;;;;;;0.05;100.00;92863.41;2131376;27;20026;-76
2022/12/07 00:48:49;;;;;;;8.75;6.90;;;;;;;0.08;100.00;92862.66;2131366;27;20050;-77
2022/12/07 00:49:51;;;;;;;8.75;6.75;;;;;;;0.15;100.00;92862.78;2121697;27;20027;-73
2022/12/07 00:50:52;;;;;;;8.20;6.75;;;;;;;0.15;100.00;92863.53;2121970;27;20031;-74
2022/12/07 00:51:53;;;;;;;9.98;6.38;;;;;;;0.09;100.00;92864.19;2122698;27;20039;-74
2022/12/07 00:52:54;;;;;;;8.48;6.72;;;;;;;0.08;100.00;92866.06;2122004;27;20613;-74
2022/12/07 00:53:55;;;;;;;9.40;6.88;;;;;;;0.02;100.00;92862.22;2122346;27;20043;-73
2022/12/07 00:54:56;;;;;;;8.68;7.05;;;;;;;0.02;100.00;92859.59;2122575;27;20028;-74
2022/12/07 00:55:57;;;;;;;9.80;6.80;;;;;;;0.03;100.00;92865.59;2122200;27;20023;-73
2022/12/07 00:56:58;;;;;;;8.88;6.80;;;;;;;0.02;100.00;92858.84;2120701;27;20039;-73
2022/12/07 00:57:59;;;;;;;7.63;6.82;;;;;;;-0.03;100.00;92860.66;2124024;27;20030;-74
2022/12/07 00:59:03;;;;;;;9.43;7.25;;;;;;;0.06;100.00;92857.78;2123418;27;20427;-74
2022/12/07 01:00:04;;;;;;;10.60;7.07;;;;;;;0.06;100.00;92857.78;2123291;27;20524;-76
2022/12/07 01:01:09;;;;;;;9.23;6.97;;;;;;;0.01;100.00;92859.97;2123298;27;20030;-76
2022/12/07 01:02:10;;;;;;;9.32;7.07;;;;;;;-0.02;100.00;92858.78;2123263;27;20023;-73
2022/12/07 01:03:13;;;;;;;8.07;6.50;;;;;;;0.03;100.00;92855.84;2123178;27;20065;-72
2022/12/07 01:04:14;;;;;;;8.35;6.55;;;;;;;-0.04;100.00;92861.78;2121924;27;20114;-75
2022/12/07 01:05:15;;;;;;;9.57;7.10;;;;;;;-0.03;100.00;92854.66;2114073;27;20028;-76
2022/12/07 01:06:19;;;;;;;8.68;6.55;;;;;;;0.03;100.00;92857.72;2122275;27;20030;-76
2022/12/07 01:07:20;;;;;;;10.35;7.05;;;;;;;0.01;100.00;92858.09;2127830;27;20035;-75
2022/12/07 01:08:21;;;;;;;8.20;6.60;;;;;;;-0.01;100.00;92861.06;2131124;27;20027;-77
2022/12/07 01:09:22;;;;;;;8.80;7.13;;;;;;;-0.02;100.00;92856.91;2131501;27;20027;-76
2022/12/07 01:10:23;;;;;;;9.68;6.90;;;;;;;0.04;100.00;92853.97;2130040;27;20023;-77
2022/12/07 01:11:27;;;;;;;9.85;6.47;;;;;;;0.15;100.00;92854.88;2131286;27;20023;-74
2022/12/07 01:12:28;;;;;;;8.60;6.90;;;;;;;0.11;100.00;92857.47;2131459;27;20112;-75
2022/12/07 01:13:29;;;;;;;8.50;6.78;;;;;;;0.03;100.00;92855.84;2131351;27;20104;-74
2022/12/07 01:14:30;;;;;;;9.05;6.97;;;;;;;0.06;100.00;92857.03;2130367;27;20023;-75
2022/12/07 01:15:32;;;;;;;8.88;7.20;;;;;;;0.07;100.00;92856.66;2122216;27;20019;-75
2022/12/07 01:16:33;;;;;;;8.70;6.88;;;;;;;0.18;100.00;92854.94;2130409;27;20026;-75
2022/12/07 01:17:34;;;;;;;7.32;5.90;;;;;;;0.10;100.00;92861.22;2128430;27;20142;-74
2022/12/07 01:18:36;;;;;;;7.88;6.45;;;;;;;0.07;100.00;92859.28;2131093;27;20030;-76
2022/12/07 01:19:37;;;;;;;7.57;6.18;;;;;;;-0.03;100.00;92859.91;2121929;27;20546;-77
2022/12/07 01:20:38;;;;;;;8.57;6.78;;;;;;;-0.03;100.00;92860.66;2122055;27;20058;-76
2022/12/07 01:21:39;;;;;;;7.63;6.38;;;;;;;-0.01;100.00;92858.44;2138449;27;20030;-76
2022/12/07 01:22:41;;;;;;;7.05;5.78;;;;;;;-0.02;100.00;92859.53;2139442;27;20022;-74
2022/12/07 01:23:43;;;;;;;6.70;5.47;;;;;;;-0.04;100.00;92866.28;2139486;27;20064;-75
2022/12/07 01:24:46;;;;;;;6.63;5.82;;;;;;;0.01;100.00;92859.97;2139520;27;20027;-76
2022/12/07 01:25:54;;;;;;;7.53;5.95;;;;;;;-0.02;100.00;92864.81;2139859;27;20113;-74
2022/12/07 01:26:55;;;;;;;8.32;6.05;;;;;;;-0.03;100.00;92868.53;2131077;27;20034;-75
2022/12/07 01:27:56;;;;;;;7.78;6.07;;;;;;;-0.06;100.00;92866.63;2122004;27;20445;-76
2022/12/07 01:28:58;;;;;;;6.90;5.57;;;;;;;-0.07;100.00;92869.59;2121673;27;20446;-74
2022/12/07 01:30:00;;;;;;;7.03;5.45;;;;;;;-0.04;100.00;92864.41;2130992;27;20445;-77
2022/12/07 01:31:05;;;;;;;7.05;6.35;;;;;;;-0.01;100.00;92862.94;2130762;27;20099;-75
2022/12/07 01:32:07;;;;;;;6.78;6.07;;;;;;;0.00;100.00;92869.72;2131005;27;20041;-74
2022/12/07 01:33:08;;;;;;;7.85;5.90;;;;;;;0.04;100.00;92873.13;2131166;27;20027;-74
2022/12/07 01:34:10;;;;;;;6.80;5.47;;;;;;;0.00;100.00;92867.09;2130857;27;20054;-74
2022/12/07 01:35:10;;;;;;;7.63;6.07;;;;;;;-0.05;100.00;92865.50;2134379;27;20514;-77
2022/12/07 01:36:19;;;;;;;6.43;5.60;;;;;;;-0.04;100.00;92867.03;2138720;27;20093;-77
2022/12/07 01:37:21;;;;;;;7.40;6.38;;;;;;;0.01;100.00;92862.59;2138580;27;20410;-77
2022/12/07 01:38:22;;;;;;;8.20;6.18;;;;;;;0.07;100.00;92874.28;2119286;27;20030;-76
2022/12/07 01:39:23;;;;;;;7.03;6.13;;;;;;;0.04;100.00;92869.75;2105001;28;20343;-76
2022/12/07 01:40:24;;;;;;;7.85;6.00;;;;;;;-0.02;100.00;92864.03;2113371;28;20036;-73
2022/12/07 01:41:28;;;;;;;7.22;6.00;;;;;;;-0.01;100.00;92868.94;2113558;28;20023;-74
2022/12/07 01:42:29;;;;;;;7.32;5.93;;;;;;;-0.03;100.00;92865.16;2111917;28;20024;-74
2022/12/07 01:43:32;;;;;;;6.88;5.68;;;;;;;-0.09;100.00;92866.56;2113505;28;20023;-73
2022/12/07 01:45:12;;;;;;;8.18;6.32;;;;;;;-0.07;100.00;92867.75;2121352;27;20056;-76
2022/12/07 01:46:13;;;;;;;7.27;5.83;;;;;;;-0.07;100.00;92870.38;2127897;27;20035;-74
2022/12/07 01:47:13;;;;;;;7.13;6.03;;;;;;;-0.12;100.00;92864.66;2134606;27;20478;-74
2022/12/07 01:48:19;;;;;;;10.13;6.03;;;;;;;-0.14;100.00;92872.88;2139216;27;20402;-75
2022/12/07 01:49:48;;;;;;;6.95;5.68;;;;;;;-0.12;100.00;92869.91;2121436;27;20035;-74
2022/12/07 01:50:51;;;;;;;6.70;5.88;;;;;;;-0.15;100.00;92871.38;2125839;27;20033;-76
2022/12/07 01:51:59;;;;;;;7.97;6.13;;;;;;;-0.11;100.00;92868.81;2131939;27;20058;-77
2022/12/07 01:53:03;;;;;;;8.20;6.30;;;;;;;-0.12;100.00;92867.28;2133415;27;20022;-73
2022/12/07 01:54:04;;;;;;;8.48;6.25;;;;;;;-0.10;100.00;92868.44;2123502;27;20034;-74
2022/12/07 01:55:11;;;;;;;7.32;6.13;;;;;;;-0.12;100.00;92868.03;2122371;27;20027;-76
2022/12/07 01:56:20;;;;;;;7.53;5.88;;;;;;;-0.08;100.00;92865.47;2131165;27;20398;-74
2022/12/07 01:57:22;;;;;;;8.15;6.68;;;;;;;-0.08;100.00;92863.59;2131197;27;20030;-74
2022/12/07 01:58:24;;;;;;;7.63;6.30;;;;;;;0.02;100.00;92864.84;2131252;27;20025;-75
2022/12/07 01:59:26;;;;;;;8.02;6.78;;;;;;;-0.04;100.00;92869.66;2130948;27;20478;-74
2022/12/07 02:00:27;;;;;;;7.50;6.00;;;;;;;-0.07;100.00;92866.97;2130788;27;20026;-75
2022/12/07 02:01:28;;;;;;;9.32;6.72;;;;;;;-0.04;100.00;92866.28;2130662;27;20031;-75
2022/12/07 02:02:33;;;;;;;9.20;6.85;;;;;;;-0.07;100.00;92872.25;2130489;27;20027;-73
2022/12/07 02:03:39;;;;;;;8.43;6.95;;;;;;;-0.15;100.00;92866.13;2131061;27;20478;-73
2022/12/07 02:04:42;;;;;;;7.80;6.40;;;;;;;-0.17;100.00;92870.97;2121517;27;20138;-74
2022/12/07 02:05:43;;;;;;;9.70;7.05;;;;;;;-0.10;100.00;92870.31;2121593;27;20072;-76
2022/12/07 02:06:45;;;;;;;8.38;6.03;;;;;;;-0.12;100.00;92875.94;2121800;27;20185;-76
2022/12/07 02:07:48;;;;;;;8.48;6.53;;;;;;;-0.07;100.00;92866.97;2122255;27;20084;-74
2022/12/07 02:08:49;;;;;;;9.30;6.47;;;;;;;-0.02;100.00;92864.81;2120990;27;20437;-75
2022/12/07 02:09:50;;;;;;;7.75;6.20;;;;;;;-0.05;100.00;92875.25;2130441;27;20022;-73
2022/12/07 02:10:51;;;;;;;7.38;5.93;;;;;;;-0.09;100.00;92871.81;2139288;27;20030;-74
2022/12/07 02:11:53;;;;;;;7.30;6.30;;;;;;;-0.12;100.00;92869.91;2139483;27;20047;-74
2022/12/07 02:13:11;;;;;;;8.38;6.45;;;;;;;0.12;100.00;92872.13;2138679;27;20022;-77
2022/12/07 02:14:12;;;;;;;6.40;5.22;;;;;;;0.20;100.00;92871.09;2139295;27;20451;-75
2022/12/07 02:15:13;;;;;;;6.75;6.05;;;;;;;0.09;100.00;92870.22;2139026;27;20066;-76
2022/12/07 02:16:17;;;;;;;7.32;5.95;;;;;;;-0.01;100.00;92876.81;2139228;27;20026;-74
2022/12/07 02:17:32;;;;;;;8.45;6.32;;;;;;;-0.10;100.00;92875.56;2139163;27;20042;-74
2022/12/07 02:18:55;;;;;;;7.82;6.28;;;;;;;-0.05;100.00;92877.88;2138275;27;20055;-74
2022/12/07 02:20:23;;;;;;;8.75;6.57;;;;;;;-0.05;100.00;92872.63;2130417;27;20049;-75
2022/12/07 02:21:44;;;;;;;10.60;6.28;;;;;;;-0.08;100.00;92876.75;2130363;27;20034;-75
2022/12/07 02:22:51;;;;;;;6.15;5.30;;;;;;;-0.02;100.00;92877.19;2130942;27;20038;-76
2022/12/07 02:24:14;;;;;;;7.25;5.70;;;;;;;0.11;100.00;92869.84;2132175;27;20030;-76
2022/12/07 02:25:24;;;;;;;7.45;5.80;;;;;;;0.23;100.00;92872.25;2139475;27;20109;-76
2022/12/07 02:26:30;;;;;;;7.65;6.18;;;;;;;0.25;100.00;92865.53;2139512;27;20026;-74
2022/12/07 02:27:46;;;;;;;7.53;6.10;;;;;;;0.14;100.00;92869.16;2127224;27;20453;-74
2022/12/07 02:29:11;;;;;;;7.80;6.30;;;;;;;-0.01;100.00;92879.44;2130761;27;20044;-74
2022/12/07 02:30:14;;;;;;;7.07;5.75;;;;;;;-0.07;100.00;92875.63;2118162;27;20046;-75
2022/12/07 02:31:20;;;;;;;7.57;5.93;;;;;;;-0.04;100.00;92876.78;2139258;27;20022;-73
2022/12/07 02:32:54;;;;;;;7.05;5.93;;;;;;;-0.07;100.00;92874.88;2122578;28;20354;-76
2022/12/07 02:34:18;;;;;;;7.82;5.72;;;;;;;-0.03;100.00;92875.66;2124163;27;20038;-74
2022/12/07 02:35:22;;;;;;;7.55;5.97;;;;;;;0.04;100.00;92872.38;2138908;27;20057;-75
2022/12/07 02:36:29;;;;;;;6.95;5.22;;;;;;;-0.03;100.00;92873.81;2139748;27;20030;-74
2022/12/07 02:37:47;;;;;;;7.20;5.93;;;;;;;0.05;100.00;92868.66;2139217;27;20082;-74
2022/12/07 02:39:03;;;;;;;8.45;5.93;;;;;;;-0.02;100.00;92874.56;2139077;27;20022;-74
2022/12/07 02:40:10;;;;;;;6.53;5.70;;;;;;;-0.08;100.00;92871.47;2136085;27;20046;-74
2022/12/07 02:41:23;;;;;;;10.43;6.43;;;;;;;-0.10;100.00;92878.94;2139186;27;20046;-74
2022/12/07 02:42:32;;;;;;;8.90;6.45;;;;;;;-0.16;100.00;92869.88;2139339;27;20055;-75
2022/12/07 02:44:01;;;;;;;9.02;5.95;;;;;;;-0.02;100.00;92869.31;2130330;27;20062;-78
2022/12/07 02:45:05;;;;;;;6.22;5.60;;;;;;;0.04;100.00;92869.75;2130988;27;20026;-74
2022/12/07 02:46:17;;;;;;;7.47;5.88;;;;;;;0.06;100.00;92867.53;2130864;27;20019;-77
2022/12/07 02:47:21;;;;;;;8.18;6.45;;;;;;;-0.09;100.00;92864.72;2130320;27;20065;-77
2022/12/07 02:48:24;;;;;;;6.78;5.68;;;;;;;-0.02;100.00;92864.03;2130546;27;20035;-77
2022/12/07 02:49:28;;;;;;;8.32;6.57;;;;;;;-0.07;100.00;92869.59;2130801;27;20163;-78
2022/12/07 02:50:28;;;;;;;8.65;6.15;;;;;;;-0.12;100.00;92872.53;2130557;27;20407;-75
2022/12/07 02:51:33;;;;;;;7.47;6.60;;;;;;;-0.18;100.00;92868.69;2130738;27;20031;-75
2022/12/07 02:52:34;;;;;;;6.80;5.97;;;;;;;-0.23;100.00;92874.25;2130466;27;20026;-74
2022/12/07 02:53:40;;;;;;;8.30;6.40;;;;;;;-0.23;100.00;92869.00;2121172;28;20518;-75
2022/12/07 02:54:41;;;;;;;7.72;5.45;;;;;;;-0.25;100.00;92874.63;2122060;27;20019;-75
2022/12/07 02:55:43;;;;;;;7.47;5.78;;;;;;;-0.14;100.00;92869.50;2132983;27;20082;-75
2022/12/07 02:56:44;;;;;;;6.85;5.72;;;;;;;-0.23;100.00;92876.88;2129962;27;20433;-74
2022/12/07 02:58:18;;;;;;;7.55;6.13;;;;;;;-0.21;100.00;92877.28;2129892;27;20026;-74
2022/12/07 02:59:34;;;;;;;7.05;5.15;;;;;;;0.04;100.00;92877.63;2139057;27;20019;-75
2022/12/07 03:00:54;;;;;;;9.43;5.85;;;;;;;-0.02;100.00;92875.31;2138535;27;20467;-75
2022/12/07 03:02:10;;;;;;;6.90;5.40;;;;;;;-0.07;100.00;92872.25;2130755;27;20027;-74
2022/12/07 03:03:14;;;;;;;6.60;5.60;;;;;;;-0.18;100.00;92872.06;2130329;27;20417;-74
2022/12/07 03:04:33;;;;;;;8.13;6.22;;;;;;;-0.09;100.00;92869.97;2130442;27;20023;-74
2022/12/07 03:05:44;;;;;;;7.75;5.95;;;;;;;-0.19;100.00;92865.31;2130750;27;20464;-73
2022/12/07 03:06:56;;;;;;;8.70;6.28;;;;;;;-0.21;100.00;92870.16;2138596;27;20022;-73
2022/12/07 03:08:11;;;;;;;9.32;5.97;;;;;;;-0.23;100.00;92869.75;2138911;27;20036;-74
2022/12/07 03:09:20;;;;;;;8.73;6.53;;;;;;;-0.21;100.00;92872.78;2129934;27;20801;-73
2022/12/07 03:10:24;;;;;;;8.15;6.28;;;;;;;-0.15;100.00;92865.38;2131508;27;20127;-74
2022/12/07 03:11:47;;;;;;;8.95;6.97;;;;;;;-0.18;100.00;92871.31;2134884;27;20121;-74
2022/12/07 03:13:02;;;;;;;9.32;6.32;;;;;;;-0.26;100.00;92863.34;2132657;27;20406;-74
2022/12/07 03:14:13;;;;;;;8.80;6.38;;;;;;;-0.24;100.00;92878.00;2139313;27;20046;-74
2022/12/07 03:15:25;;;;;;;8.15;6.20;;;;;;;-0.21;100.00;92870.16;2139232;27;20094;-74
2022/12/07 03:16:40;;;;;;;8.68;6.38;;;;;;;-0.23;100.00;92867.13;2127289;27;20015;-74
2022/12/07 03:17:45;;;;;;;10.35;6.32;;;;;;;-0.19;100.00;92867.94;2121130;28;20489;-74
2022/12/07 03:19:23;;;;;;;7.22;6.25;;;;;;;0.00;100.00;92874.97;2113097;28;20085;-74
2022/12/07 03:20:27;;;;;;;7.78;6.05;;;;;;;-0.11;100.00;92864.31;2084260;28;20136;-74
2022/12/07 03:21:39;;;;;;;9.27;6.57;;;;;;;-0.15;100.00;92865.38;2089377;28;20110;-74
2022/12/07 03:22:43;;;;;;;9.98;6.20;;;;;;;-0.02;100.00;92864.03;2110310;27;20035;-74
2022/12/07 03:23:49;;;;;;;9.05;6.60;;;;;;;-0.13;100.00;92863.13;2132051;27;20030;-74
2022/12/07 03:25:00;;;;;;;8.02;6.35;;;;;;;-0.16;100.00;92871.72;2131285;27;20118;-74
2022/12/07 03:26:05;;;;;;;8.93;6.22;;;;;;;-0.14;100.00;92866.88;2131691;27;20497;-74
2022/12/07 03:27:12;;;;;;;7.88;5.95;;;;;;;-0.19;100.00;92867.94;2127254;27;20465;-74
2022/12/07 03:28:17;;;;;;;6.78;5.75;;;;;;;-0.15;100.00;92858.25;2122980;27;20023;-74
2022/12/07 03:29:43;;;;;;;7.18;5.72;;;;;;;-0.12;100.00;92862.78;2122883;27;20051;-74
2022/12/07 03:31:01;;;;;;;5.10;4.50;;;;;;;-0.05;100.00;92859.50;2123197;27;20231;-74
2022/12/07 03:32:12;;;;;;;5.00;4.13;;;;;;;-0.07;100.00;92854.59;2122864;27;20035;-74
2022/12/07 03:33:24;;;;;;;4.60;3.83;;;;;;;-0.12;100.00;92860.16;2123359;27;20369;-74
2022/12/07 03:34:28;;;;;;;5.68;4.60;;;;;;;-0.09;100.00;92864.72;2122643;27;20554;-74
2022/12/07 03:35:37;;;;;;;5.10;4.50;;;;;;;-0.08;100.00;92860.97;2123076;27;20055;-74
2022/12/07 03:36:44;;;;;;;4.60;4.00;;;;;;;-0.11;100.00;92860.91;2123005;27;20097;-74
2022/12/07 03:37:56;;;;;;;6.20;4.43;;;;;;;-0.08;100.00;92857.59;2131385;27;20038;-74
2022/12/07 03:38:59;;;;;;;6.28;4.40;;;;;;;-0.11;100.00;92863.53;2123677;27;20023;-74
2022/12/07 03:40:12;;;;;;;4.15;3.50;;;;;;;-0.15;100.00;92865.38;2114220;28;20476;-74
2022/12/07 03:41:25;;;;;;;4.15;3.50;;;;;;;-0.13;100.00;92858.66;2109589;27;20038;-74
2022/12/07 03:42:26;;;;;;;4.88;3.60;;;;;;;-0.05;100.00;92856.88;2122140;27;20485;-77
2022/12/07 03:43:31;;;;;;;4.25;3.38;;;;;;;-0.11;100.00;92860.91;2123106;27;20031;-74
2022/12/07 03:44:34;;;;;;;4.80;3.78;;;;;;;-0.18;100.00;92861.56;2123126;27;20027;-76
2022/12/07 03:45:41;;;;;;;5.10;3.53;;;;;;;-0.12;100.00;92860.16;2123604;27;20042;-75
2022/12/07 03:47:10;;;;;;;4.22;3.83;;;;;;;-0.13;100.00;92858.66;2123586;27;20066;-72
2022/12/07 03:48:34;;;;;;;4.88;3.50;;;;;;;-0.10;100.00;92860.56;2126256;27;20034;-72
2022/12/07 03:50:06;;;;;;;4.00;3.38;;;;;;;-0.06;100.00;92858.75;2131318;27;20460;-73
2022/12/07 03:51:16;;;;;;;3.38;3.00;;;;;;;0.04;100.00;92852.09;2132013;27;20023;-75
2022/12/07 03:52:26;;;;;;;4.03;3.38;;;;;;;0.10;100.00;92847.31;2132084;27;20037;-75
2022/12/07 03:54:05;;;;;;;3.50;3.20;;;;;;;-0.05;100.00;92855.00;2123459;27;20118;-77
2022/12/07 03:55:19;;;;;;;4.18;3.22;;;;;;;-0.06;100.00;92848.22;2122755;27;20034;-76
2022/12/07 03:56:22;;;;;;;4.40;3.25;;;;;;;-0.03;100.00;92858.03;2123020;27;20026;-74
2022/12/07 03:57:25;;;;;;;3.88;3.33;;;;;;;-0.05;100.00;92848.97;2123245;27;20531;-73
2022/12/07 03:58:27;;;;;;;4.43;3.58;;;;;;;-0.12;100.00;92846.28;2130051;27;20514;-75
2022/12/07 03:59:30;;;;;;;4.40;3.90;;;;;;;-0.16;100.00;92843.59;2130503;27;20472;-73
2022/12/07 04:00:31;;;;;;;4.30;3.67;;;;;;;-0.14;100.00;92846.63;2131644;27;20452;-74
2022/12/07 04:01:32;;;;;;;4.10;3.60;;;;;;;-0.15;100.00;92852.22;2131923;27;20094;-73
2022/12/07 04:02:34;;;;;;;3.35;3.05;;;;;;;-0.21;100.00;92851.03;2131751;27;20081;-76
2022/12/07 04:03:35;;;;;;;3.45;3.08;;;;;;;-0.22;100.00;92854.75;2131782;27;20154;-73
2022/12/07 04:04:35;;;;;;;3.28;2.97;;;;;;;-0.17;100.00;92851.84;2131540;27;20115;-73
2022/12/07 04:05:38;;;;;;;3.20;2.90;;;;;;;-0.18;100.00;92853.69;2122692;27;20125;-74
2022/12/07 04:06:39;;;;;;;3.38;2.92;;;;;;;-0.24;100.00;92847.22;2114134;27;20765;-77
2022/12/07 04:07:40;;;;;;;4.93;2.90;;;;;;;-0.22;100.00;92852.91;2122015;27;20042;-73
2022/12/07 04:08:41;;;;;;;2.85;2.50;;;;;;;-0.16;100.00;92846.22;2125565;27;20023;-73
2022/12/07 04:09:42;;;;;;;4.18;2.83;;;;;;;-0.12;100.00;92848.91;2122519;27;20050;-74
2022/12/07 04:10:43;;;;;;;3.00;2.70;;;;;;;-0.15;100.00;92849.59;2114379;28;20023;-74
2022/12/07 04:11:44;;;;;;;3.00;2.67;;;;;;;-0.11;100.00;92855.66;2113785;28;20485;-75
2022/12/07 04:12:45;;;;;;;3.08;2.78;;;;;;;-0.13;100.00;92842.91;2113890;28;20027;-76
2022/12/07 04:15:16;;;;;;;3.22;2.85;;;;;;;-0.11;100.00;92845.16;2123110;27;20038;-76
2022/12/07 04:16:17;;;;;;;3.05;2.70;;;;;;;-0.09;100.00;92843.72;2123442;27;20401;-75
2022/12/07 04:17:17;;;;;;;3.13;2.80;;;;;;;-0.16;100.00;92854.09;2122365;27;20050;-75
2022/12/07 04:18:18;;;;;;;3.08;2.63;;;;;;;-0.12;100.00;92852.28;2123617;27;20100;-76
2022/12/07 04:19:23;;;;;;;3.38;2.72;;;;;;;-0.15;100.00;92839.84;2131548;27;20030;-75
2022/12/07 04:20:24;;;;;;;3.00;2.70;;;;;;;-0.18;100.00;92843.19;2131773;27;20023;-75
2022/12/07 04:21:25;;;;;;;2.97;2.70;;;;;;;-0.18;100.00;92843.19;2131370;27;20037;-77
2022/12/07 04:22:26;;;;;;;3.15;2.85;;;;;;;-0.23;100.00;92845.34;2122848;27;20814;-73
2022/12/07 04:23:27;;;;;;;3.40;3.10;;;;;;;-0.26;100.00;92846.84;2128932;27;20507;-75
2022/12/07 04:24:29;;;;;;;3.00;2.70;;;;;;;-0.06;100.00;92842.97;2113412;28;20075;-76
2022/12/07 04:25:30;;;;;;;3.00;2.70;;;;;;;-0.17;100.00;92849.97;2113972;28;20057;-74
2022/12/07 04:26:31;;;;;;;3.30;3.00;;;;;;;-0.21;100.00;92848.41;2122723;27;20080;-76
2022/12/07 04:27:32;;;;;;;3.05;2.65;;;;;;;-0.26;100.00;92849.47;2122731;27;20030;-77
2022/12/07 04:28:33;;;;;;;3.15;2.85;;;;;;;-0.33;100.00;92854.59;2122576;27;20023;-75
2022/12/07 04:29:34;;;;;;;3.13;2.78;;;;;;;-0.33;100.00;92849.34;2122671;27;20397;-74
2022/12/07 04:30:35;;;;;;;3.05;2.75;;;;;;;-0.34;100.00;92855.72;2122211;27;20117;-75
2022/12/07 04:31:37;;;;;;;2.60;2.40;;;;;;;-0.28;100.00;92852.44;2123842;27;20034;-73
2022/12/07 04:32:37;;;;;;;3.45;3.13;;;;;;;-0.32;100.00;92850.88;2116289;27;20032;-73
2022/12/07 04:33:38;;;;;;;3.47;2.67;;;;;;;-0.32;100.00;92850.88;2125316;27;20039;-75
2022/12/07 04:34:39;;;;;;;3.08;2.78;;;;;;;-0.27;100.00;92856.56;2125416;27;20027;-77
2022/12/07 04:35:42;;;;;;;3.25;2.95;;;;;;;-0.31;100.00;92857.63;2131961;27;20780;-77
2022/12/07 04:36:44;;;;;;;3.00;2.70;;;;;;;-0.31;100.00;92863.66;2131433;27;20034;-73
2022/12/07 04:37:45;;;;;;;2.90;2.67;;;;;;;-0.37;100.00;92854.53;2130942;27;20444;-74
2022/12/07 04:38:47;;;;;;;3.10;2.80;;;;;;;-0.33;100.00;92854.59;2125579;27;20026;-75
2022/12/07 04:39:48;;;;;;;2.90;2.70;;;;;;;-0.36;100.00;92857.94;2122849;27;20031;-74
2022/12/07 04:40:49;;;;;;;3.65;3.22;;;;;;;-0.33;100.00;92860.59;2122990;27;20034;-76
2022/12/07 04:41:50;;;;;;;3.22;2.92;;;;;;;-0.32;100.00;92853.50;2123122;27;20039;-76
2022/12/07 04:42:51;;;;;;;4.07;3.03;;;;;;;-0.34;100.00;92848.59;2123039;27;20114;-76
2022/12/07 04:43:57;;;;;;;5.28;3.13;;;;;;;-0.31;100.00;92852.38;2123023;27;20034;-75
2022/12/07 04:44:58;;;;;;;4.35;3.42;;;;;;;-0.30;100.00;92859.16;2122114;27;20019;-77
2022/12/07 04:45:58;;;;;;;3.10;2.80;;;;;;;-0.29;100.00;92845.66;2121975;27;20026;-75
2022/12/07 04:46:59;;;;;;;3.63;3.33;;;;;;;-0.14;100.00;92851.88;2122558;27;20103;-77
2022/12/07 04:48:00;;;;;;;2.97;2.78;;;;;;;-0.21;100.00;92851.03;2131074;27;20444;-76
2022/12/07 04:49:02;;;;;;;3.60;3.30;;;;;;;-0.27;100.00;92851.31;2130878;27;20042;-73
2022/12/07 04:50:04;;;;;;;4.25;3.85;;;;;;;-0.27;100.00;92853.19;2130278;27;20015;-75
2022/12/07 04:51:05;;;;;;;4.30;3.90;;;;;;;-0.22;100.00;92852.91;2122031;27;20031;-74
2022/12/07 04:52:06;;;;;;;3.88;3.47;;;;;;;-0.24;100.00;92857.72;2124758;27;20027;-75
2022/12/07 04:53:07;;;;;;;3.70;3.40;;;;;;;-0.27;100.00;92866.31;2130793;27;20031;-77
2022/12/07 04:54:08;;;;;;;3.85;3.45;;;;;;;-0.28;100.00;92856.94;2130826;27;20042;-74
2022/12/07 04:55:09;;;;;;;4.32;3.50;;;;;;;-0.31;100.00;92853.16;2125343;27;20023;-73
2022/12/07 04:56:10;;;;;;;3.80;3.40;;;;;;;-0.13;100.00;92852.63;2113515;28;20027;-74
2022/12/07 04:57:11;;;;;;;4.07;3.30;;;;;;;-0.21;100.00;92858.91;2105230;28;20060;-74
2022/12/07 04:58:13;;;;;;;4.20;3.80;;;;;;;-0.16;100.00;92851.47;2121927;27;20023;-74
2022/12/07 04:59:16;;;;;;;4.40;4.00;;;;;;;-0.28;100.00;92852.44;2122769;27;20484;-74
2022/12/07 05:00:17;;;;;;;4.40;4.00;;;;;;;-0.32;100.00;92848.25;2125557;27;20058;-74
2022/12/07 05:01:18;;;;;;;4.60;4.10;;;;;;;-0.37;100.00;92856.41;2122579;27;20019;-74
2022/12/07 05:02:19;;;;;;;4.32;3.65;;;;;;;-0.30;100.00;92848.66;2122732;27;20023;-74
2022/12/07 05:03:20;;;;;;;5.20;3.70;;;;;;;-0.26;100.00;92841.59;2121956;27;20030;-73
2022/12/07 05:04:21;;;;;;;4.43;3.70;;;;;;;-0.26;100.00;92850.22;2121698;27;20031;-73
2022/12/07 05:05:22;;;;;;;4.28;3.78;;;;;;;-0.13;100.00;92848.16;2126464;27;20114;-76